Terminal Aerodrome Forecast
Issued by NWS

Home | Current Version | Previous Version | Text Only | Print | Product List | Glossary On
Versions: 1 2 3 4 5 6 7 8 9 10 11 12
000
FTUS45 KGGW 281725
TAFSDY
TAF
KSDY 281725Z 2818/2918 VRB03KT P6SM SCT090 BKN120
     FM282100 14008KT P6SM VCTS SCT070 BKN100CB
     FM282300 VRB15G25KT 5SM -TSRA SCT060CB BKN090
     FM290100 14012KT P6SM VCTS SCT080CB BKN110
     FM290400 22006KT P6SM BKN120=

USA.gov is the U.S. government's official web portal to all federal, state and local government web resources and services.